createdAt,value
2019-01-18T00:02:00.166Z,26.77
2019-01-18T00:04:45.382Z,27.00
2019-01-18T00:07:30.100Z,23.90
2019-01-18T00:10:15.228Z,18.80
2019-01-18T00:13:00.076Z,18.87
2019-01-18T00:15:45.188Z,20.50
2019-01-18T00:18:30.023Z,22.57
2019-01-18T00:21:14.888Z,22.77
2019-01-18T00:24:00.052Z,19.90
2019-01-18T00:26:45.407Z,19.50
2019-01-18T00:29:30.632Z,25.37
2019-01-18T00:32:15.773Z,26.07
2019-01-18T00:35:00.742Z,27.93
2019-01-18T00:37:46.481Z,24.20
2019-01-18T00:40:31.531Z,29.97
2019-01-18T00:43:16.629Z,26.70
2019-01-18T00:46:01.309Z,25.30
2019-01-18T00:48:47.381Z,25.60
2019-01-18T00:51:32.736Z,28.60
2019-01-18T00:54:18.101Z,30.50
2019-01-18T00:57:03.518Z,28.33
2019-01-18T00:59:48.712Z,33.53
2019-01-18T01:02:33.378Z,27.87
2019-01-18T01:05:18.621Z,30.97
2019-01-18T01:08:03.514Z,26.83
2019-01-18T01:10:48.592Z,28.87
2019-01-18T01:13:33.958Z,33.23
2019-01-18T01:16:18.758Z,30.30
2019-01-18T01:19:04.140Z,28.40
2019-01-18T01:21:49.230Z,39.00
2019-01-18T01:24:34.462Z,32.73
2019-01-18T01:27:19.658Z,27.00
2019-01-18T01:30:11.198Z,30.13
2019-01-18T01:32:56.325Z,30.23
2019-01-18T01:35:41.691Z,27.30
2019-01-18T01:38:26.921Z,26.30
2019-01-18T01:41:11.635Z,25.00
2019-01-18T01:43:56.841Z,25.13
2019-01-18T01:46:42.085Z,26.50
2019-01-18T01:49:27.658Z,25.33
2019-01-18T01:52:12.432Z,27.80
2019-01-18T01:54:57.786Z,28.50
2019-01-18T01:57:43.001Z,25.40
2019-01-18T02:00:27.716Z,23.70
2019-01-18T02:03:12.414Z,18.47
2019-01-18T02:05:57.483Z,21.43
2019-01-18T02:08:42.142Z,23.73
2019-01-18T02:11:27.479Z,22.10
2019-01-18T02:14:12.720Z,21.97
2019-01-18T02:16:57.841Z,30.23
2019-01-18T02:19:42.834Z,26.87
2019-01-18T02:22:28.090Z,30.00
2019-01-18T02:25:12.998Z,24.60
2019-01-18T02:27:58.259Z,19.17
2019-01-18T02:30:43.724Z,17.77
2019-01-18T02:33:28.515Z,12.70
2019-01-18T02:36:13.292Z,11.93
2019-01-18T02:38:58.747Z,11.07
2019-01-18T02:41:43.430Z,13.07
2019-01-18T02:44:28.251Z,12.63
2019-01-18T02:47:13.039Z,11.50
2019-01-18T02:49:57.753Z,13.73
2019-01-18T02:52:42.378Z,16.00
2019-01-18T02:55:29.026Z,15.70
2019-01-18T02:58:14.609Z,20.23
2019-01-18T03:00:59.892Z,13.13
2019-01-18T03:03:44.884Z,13.70
2019-01-18T03:06:29.633Z,11.73
2019-01-18T03:09:14.789Z,14.37
2019-01-18T03:11:59.959Z,12.23
2019-01-18T03:14:44.674Z,12.93
2019-01-18T03:17:29.990Z,14.80
2019-01-18T03:20:17.030Z,15.23
2019-01-18T03:23:02.073Z,13.70
2019-01-18T03:25:47.186Z,10.67
2019-01-18T03:28:31.877Z,12.07
2019-01-18T03:31:16.679Z,11.93
2019-01-18T03:34:01.863Z,13.17
2019-01-18T03:36:46.683Z,11.77
2019-01-18T03:39:31.932Z,11.30
2019-01-18T03:42:16.919Z,11.07
2019-01-18T03:45:05.194Z,12.80
2019-01-18T03:47:50.975Z,10.53
2019-01-18T03:50:36.451Z,10.93
2019-01-18T03:53:21.607Z,9.97
2019-01-18T03:56:06.921Z,9.70
2019-01-18T03:58:51.661Z,11.87
2019-01-18T04:01:37.309Z,11.00
2019-01-18T04:04:22.103Z,13.87
2019-01-18T04:07:07.428Z,10.60
2019-01-18T04:09:52.803Z,10.43
2019-01-18T04:12:37.762Z,12.03
2019-01-18T04:15:42.146Z,11.07
2019-01-18T04:18:19.017Z,9.90
2019-01-18T04:21:04.191Z,10.67
2019-01-18T04:23:49.330Z,11.73
2019-01-18T04:26:34.587Z,10.00
2019-01-18T04:29:19.791Z,11.20
2019-01-18T04:32:04.529Z,10.93
2019-01-18T04:34:49.705Z,10.60
2019-01-18T04:37:34.874Z,8.07
2019-01-18T04:40:23.867Z,10.20
2019-01-18T04:43:08.603Z,5.87
2019-01-18T04:45:53.853Z,6.43
2019-01-18T04:48:38.706Z,10.80
2019-01-18T04:51:24.214Z,7.57
2019-01-18T04:54:09.372Z,6.00
2019-01-18T04:56:54.325Z,5.70
2019-01-18T04:59:39.255Z,6.87
2019-01-18T05:02:24.344Z,6.40
2019-01-18T05:05:09.190Z,7.63
2019-01-18T05:07:54.882Z,11.37
2019-01-18T05:10:40.049Z,8.50
2019-01-18T05:13:24.991Z,6.27
2019-01-18T05:16:30.020Z,11.37
2019-01-18T05:19:15.139Z,7.13
2019-01-18T05:22:00.481Z,9.77
2019-01-18T05:24:49.575Z,8.60
2019-01-18T05:28:10.891Z,8.80
2019-01-18T05:30:53.415Z,7.17
2019-01-18T05:33:38.371Z,7.17
2019-01-18T05:36:23.535Z,10.50
2019-01-18T05:39:08.541Z,11.03
2019-01-18T05:41:54.063Z,7.07
2019-01-18T05:44:39.137Z,8.97
2019-01-18T05:47:24.251Z,11.37
2019-01-18T05:50:12.400Z,8.67
2019-01-18T05:52:58.406Z,6.90
2019-01-18T05:55:43.418Z,11.77
2019-01-18T05:58:28.680Z,8.43
2019-01-18T06:01:13.948Z,7.80
2019-01-18T06:03:58.839Z,9.57
2019-01-18T06:06:43.472Z,10.00
2019-01-18T06:09:28.331Z,8.37
2019-01-18T06:12:13.394Z,9.97
2019-01-18T06:14:58.114Z,9.00
2019-01-18T06:17:43.371Z,9.83
2019-01-18T06:20:28.046Z,12.13
2019-01-18T06:23:13.102Z,11.50
2019-01-18T06:25:58.038Z,12.20
2019-01-18T06:28:42.842Z,10.17
2019-01-18T06:31:27.963Z,10.17
2019-01-18T06:34:12.702Z,13.70
2019-01-18T06:36:57.990Z,15.40
2019-01-18T06:39:42.604Z,14.30
2019-01-18T06:42:27.941Z,12.90
2019-01-18T06:45:15.565Z,12.53
2019-01-18T06:48:00.405Z,8.90
2019-01-18T06:50:45.155Z,8.33
2019-01-18T06:53:29.887Z,10.93
2019-01-18T06:56:14.867Z,11.77
2019-01-18T06:58:59.989Z,13.43
2019-01-18T07:01:44.832Z,14.53
2019-01-18T07:04:30.149Z,13.30
2019-01-18T07:07:15.468Z,17.47
2019-01-18T07:10:00.750Z,16.57
2019-01-18T07:12:45.997Z,11.10
2019-01-18T07:15:31.858Z,13.40
2019-01-18T07:18:17.254Z,18.50
2019-01-18T07:21:02.237Z,19.63
2019-01-18T07:23:46.986Z,16.23
2019-01-18T07:26:32.179Z,14.27
2019-01-18T07:29:17.351Z,14.30
2019-01-18T07:32:02.370Z,12.77
2019-01-18T07:34:47.322Z,15.47
2019-01-18T07:37:32.889Z,14.30
2019-01-18T07:40:17.924Z,19.97
2019-01-18T07:43:03.119Z,25.00
2019-01-18T07:45:48.379Z,23.27
2019-01-18T07:48:33.577Z,20.43
2019-01-18T07:51:18.387Z,18.60
2019-01-18T07:54:23.505Z,17.77
2019-01-18T07:57:08.722Z,16.07
2019-01-18T07:59:53.756Z,18.83
2019-01-18T08:02:39.764Z,14.13
2019-01-18T08:05:26.860Z,19.93
2019-01-18T08:08:12.388Z,17.63
2019-01-18T08:10:57.488Z,21.03
2019-01-18T08:13:42.624Z,28.47
2019-01-18T08:16:28.173Z,23.87
2019-01-18T08:19:13.395Z,24.97
2019-01-18T08:21:58.622Z,23.33
2019-01-18T08:24:43.886Z,21.87
2019-01-18T08:27:29.048Z,18.67
2019-01-18T08:30:17.889Z,17.07
2019-01-18T08:33:02.970Z,21.33
2019-01-18T08:35:47.810Z,20.37
2019-01-18T08:38:32.897Z,11.90
2019-01-18T08:41:18.117Z,12.50
2019-01-18T08:44:03.545Z,16.77
2019-01-18T08:46:48.317Z,13.90
2019-01-18T08:49:33.546Z,15.97
2019-01-18T08:52:18.166Z,19.73
2019-01-18T08:55:06.340Z,23.83
2019-01-18T08:57:51.674Z,15.47
2019-01-18T09:00:37.316Z,12.87
2019-01-18T09:03:36.640Z,13.50
2019-01-18T09:06:21.496Z,18.40
2019-01-18T09:09:06.567Z,16.90
2019-01-18T09:11:51.540Z,12.97
2019-01-18T09:14:36.442Z,16.37
2019-01-18T09:17:21.889Z,10.67
2019-01-18T09:20:15.977Z,10.70
2019-01-18T09:23:01.056Z,11.97
2019-01-18T09:25:45.861Z,8.20
2019-01-18T09:28:31.187Z,8.90
2019-01-18T09:31:16.527Z,9.50
2019-01-18T09:34:01.833Z,10.57
2019-01-18T09:36:46.969Z,7.40
2019-01-18T09:39:32.757Z,5.80
2019-01-18T09:42:17.514Z,8.87
2019-01-18T09:45:06.165Z,4.77
2019-01-18T09:47:51.322Z,6.17
2019-01-18T09:50:37.108Z,4.87
2019-01-18T09:53:22.428Z,7.33
2019-01-18T09:56:07.933Z,9.00
2019-01-18T09:58:53.264Z,9.57
2019-01-18T10:01:38.797Z,10.37
2019-01-18T10:04:23.797Z,10.43
2019-01-18T10:07:08.650Z,9.00
2019-01-18T10:09:53.806Z,7.47
2019-01-18T10:12:38.530Z,10.43
2019-01-18T10:15:29.903Z,10.93
2019-01-18T10:18:15.050Z,10.13
2019-01-18T10:21:00.028Z,5.80
2019-01-18T10:23:45.053Z,4.57
2019-01-18T10:26:30.319Z,5.77
2019-01-18T10:29:15.783Z,7.93
2019-01-18T10:32:01.047Z,6.73
2019-01-18T10:34:45.908Z,9.77
2019-01-18T10:37:30.587Z,9.23
2019-01-18T10:40:16.569Z,5.40
2019-01-18T10:43:01.686Z,5.60
2019-01-18T10:45:47.027Z,4.17
2019-01-18T10:48:32.439Z,5.83
2019-01-18T10:51:17.591Z,6.00
2019-01-18T10:54:02.586Z,6.93
2019-01-18T10:56:47.710Z,7.60
2019-01-18T10:59:33.003Z,6.87
2019-01-18T11:02:19.156Z,7.80
2019-01-18T11:05:07.102Z,8.63
2019-01-18T11:07:52.179Z,12.77
2019-01-18T11:10:37.210Z,13.03
2019-01-18T11:13:22.192Z,13.37
2019-01-18T11:16:07.009Z,11.63
2019-01-18T11:18:52.180Z,7.77
2019-01-18T11:21:37.353Z,7.77
2019-01-18T11:24:22.389Z,7.20
2019-01-18T11:27:07.673Z,12.10
2019-01-18T11:29:53.423Z,9.97
2019-01-18T11:32:38.827Z,11.00
2019-01-18T11:35:24.575Z,8.93
2019-01-18T11:38:09.675Z,8.60
2019-01-18T11:40:54.457Z,8.77
2019-01-18T11:43:39.799Z,6.40
2019-01-18T11:46:25.316Z,10.20
2019-01-18T11:49:10.236Z,10.60
2019-01-18T11:51:55.341Z,8.17
2019-01-18T11:54:43.972Z,7.77
2019-01-18T11:57:27.152Z,5.50
2019-01-18T12:00:26.362Z,8.63
2019-01-18T12:03:11.952Z,7.80
2019-01-18T12:05:57.114Z,7.00
2019-01-18T12:08:42.252Z,10.33
2019-01-18T12:11:27.012Z,7.23
2019-01-18T12:14:19.062Z,11.87
2019-01-18T12:17:04.432Z,7.00
2019-01-18T12:19:49.660Z,6.60
2019-01-18T12:22:35.172Z,9.10
2019-01-18T12:25:20.047Z,10.87
2019-01-18T12:28:05.165Z,9.03
2019-01-18T12:30:50.481Z,7.37
2019-01-18T12:33:35.785Z,8.20
2019-01-18T12:36:21.277Z,10.03
2019-01-18T12:39:08.717Z,11.07
2019-01-18T12:41:53.726Z,11.83
2019-01-18T12:44:39.185Z,8.63
2019-01-18T12:47:26.182Z,7.00
2019-01-18T12:50:18.499Z,9.27
2019-01-18T12:53:03.734Z,8.87
2019-01-18T12:55:48.894Z,11.70
2019-01-18T12:58:33.979Z,10.33
2019-01-18T13:01:19.414Z,10.50
2019-01-18T13:04:08.190Z,7.63
2019-01-18T13:06:51.352Z,12.90
2019-01-18T13:09:36.538Z,9.27
2019-01-18T13:12:21.794Z,14.13
2019-01-18T13:15:22.879Z,9.10
2019-01-18T13:18:07.783Z,13.20
2019-01-18T13:20:52.896Z,8.73
2019-01-18T13:23:37.731Z,8.97
2019-01-18T13:26:23.027Z,9.47
2019-01-18T13:29:07.710Z,11.77
2019-01-18T13:31:53.053Z,7.87
2019-01-18T13:34:38.914Z,7.33
2019-01-18T13:37:24.101Z,10.03
2019-01-18T13:40:20.527Z,12.50
2019-01-18T13:43:05.664Z,16.63
2019-01-18T13:45:51.305Z,13.27
2019-01-18T13:48:36.144Z,11.47
2019-01-18T13:51:20.935Z,30.50
2019-01-18T13:54:06.235Z,15.47
2019-01-18T13:56:51.456Z,11.10
2019-01-18T13:59:36.632Z,12.60
2019-01-18T14:02:21.732Z,8.37
2019-01-18T14:05:10.795Z,12.10
2019-01-18T14:07:55.790Z,13.10
2019-01-18T14:10:41.116Z,13.07
2019-01-18T14:13:26.399Z,13.40
2019-01-18T14:16:11.568Z,9.30
2019-01-18T14:18:56.556Z,8.17
2019-01-18T14:21:41.631Z,13.63
2019-01-18T14:24:26.519Z,9.67
2019-01-18T14:27:11.499Z,16.30
2019-01-18T14:29:56.235Z,20.83
2019-01-18T14:32:42.573Z,13.77
2019-01-18T14:35:28.131Z,13.47
2019-01-18T14:38:13.551Z,15.47
2019-01-18T14:40:58.765Z,15.33
2019-01-18T14:43:43.900Z,28.47
2019-01-18T14:46:28.787Z,20.00
2019-01-18T14:49:14.470Z,19.13
2019-01-18T14:52:00.086Z,23.37
2019-01-18T14:54:45.107Z,27.50
2019-01-18T14:57:29.894Z,17.80
2019-01-18T15:00:22.654Z,24.40
2019-01-18T15:03:07.966Z,13.77
2019-01-18T15:05:53.839Z,9.97
2019-01-18T15:08:39.452Z,7.33
2019-01-18T15:11:24.500Z,7.73
2019-01-18T15:14:09.456Z,8.67
2019-01-18T15:16:54.722Z,10.10
2019-01-18T15:19:40.472Z,6.83
2019-01-18T15:22:26.053Z,7.27
2019-01-18T15:25:11.229Z,10.47
2019-01-18T15:27:56.673Z,13.20
2019-01-18T15:30:42.053Z,17.37
2019-01-18T15:33:27.292Z,17.70
2019-01-18T15:36:12.043Z,19.83
2019-01-18T15:38:57.513Z,16.60
2019-01-18T15:41:42.585Z,24.00
2019-01-18T15:44:27.747Z,16.47
2019-01-18T15:47:12.698Z,20.23
2019-01-18T15:50:00.076Z,17.77
2019-01-18T15:52:45.074Z,24.77
2019-01-18T15:55:30.439Z,32.90
2019-01-18T15:58:15.284Z,28.50
2019-01-18T16:01:00.444Z,23.10
2019-01-18T16:03:45.309Z,26.23
2019-01-18T16:06:30.331Z,25.10
2019-01-18T16:09:15.399Z,23.30
2019-01-18T16:12:00.911Z,19.93
2019-01-18T16:14:45.924Z,16.83
2019-01-18T16:17:31.676Z,23.27
2019-01-18T16:20:19.920Z,28.87
2019-01-18T16:23:05.275Z,27.83
2019-01-18T16:25:50.116Z,31.23
2019-01-18T16:28:35.366Z,35.27
2019-01-18T16:31:20.122Z,32.37
2019-01-18T16:34:05.355Z,34.10
2019-01-18T16:36:50.143Z,36.77
2019-01-18T16:39:35.460Z,33.03
2019-01-18T16:42:20.611Z,36.37
2019-01-18T16:45:12.665Z,30.43
2019-01-18T16:47:57.962Z,32.80
2019-01-18T16:50:48.343Z,24.40
2019-01-18T16:53:33.502Z,17.37
2019-01-18T16:56:19.507Z,26.47
2019-01-18T16:59:05.094Z,21.93
2019-01-18T17:01:50.951Z,25.03
2019-01-18T17:04:35.755Z,24.53
2019-01-18T17:07:20.924Z,22.17
2019-01-18T17:10:09.549Z,49.53
2019-01-18T17:12:54.636Z,23.43
2019-01-18T17:15:39.959Z,20.77
2019-01-18T17:18:25.729Z,25.20
2019-01-18T17:21:10.541Z,28.77
2019-01-18T17:23:56.014Z,25.70
2019-01-18T17:26:41.421Z,27.13
2019-01-18T17:29:26.611Z,25.80
2019-01-18T17:32:12.461Z,24.60
2019-01-18T17:34:57.535Z,30.73
2019-01-18T17:37:46.602Z,34.17
2019-01-18T17:40:35.434Z,27.83
2019-01-18T17:43:42.852Z,28.03
2019-01-18T17:46:41.315Z,32.37
2019-01-18T17:49:33.076Z,28.93
2019-01-18T17:52:34.305Z,31.03
2019-01-18T17:55:57.945Z,29.00
2019-01-18T17:58:52.762Z,54.27
2019-01-18T18:02:07.866Z,33.07
2019-01-18T18:05:11.452Z,32.43
2019-01-18T18:08:14.967Z,29.73
2019-01-18T18:11:16.190Z,27.10
2019-01-18T18:14:15.696Z,31.07
2019-01-18T18:17:13.968Z,31.67
2019-01-18T18:20:28.684Z,31.47
2019-01-18T18:23:35.570Z,37.67
2019-01-18T18:26:24.329Z,42.13
2019-01-18T18:29:29.410Z,36.57
2019-01-18T18:32:24.070Z,40.27
2019-01-18T18:35:39.697Z,47.17
2019-01-18T18:38:31.618Z,53.67
2019-01-18T18:41:36.831Z,48.47
2019-01-18T18:44:59.589Z,48.83
2019-01-18T18:48:08.254Z,51.50
2019-01-18T18:51:16.501Z,55.73
2019-01-18T18:54:40.688Z,48.47
2019-01-18T18:57:54.024Z,64.43
2019-01-18T19:00:51.774Z,71.90
2019-01-18T19:03:57.519Z,93.03
2019-01-18T19:07:05.189Z,72.23
2019-01-18T19:10:09.362Z,50.13
2019-01-18T19:13:15.019Z,53.43
2019-01-18T19:16:06.830Z,39.20
2019-01-18T19:19:07.751Z,38.07
2019-01-18T19:22:15.226Z,45.60
2019-01-18T19:25:04.092Z,39.80
2019-01-18T19:28:04.803Z,51.10
2019-01-18T19:30:56.553Z,38.37
2019-01-18T19:33:54.636Z,28.60
2019-01-18T19:36:49.476Z,37.03
2019-01-18T19:39:41.512Z,29.53
2019-01-18T19:42:53.687Z,23.77
2019-01-18T19:45:45.609Z,31.20
2019-01-18T19:48:36.859Z,36.77
2019-01-18T19:51:45.458Z,36.13
2019-01-18T19:54:43.254Z,30.40
2019-01-18T19:57:41.311Z,29.13
2019-01-18T20:00:42.530Z,27.20
2019-01-18T20:03:55.052Z,31.33
2019-01-18T20:06:56.162Z,35.30
2019-01-18T20:09:48.050Z,31.87
2019-01-18T20:12:45.581Z,34.63
2019-01-18T20:15:40.810Z,35.80
2019-01-18T20:19:08.935Z,33.90
2019-01-18T20:22:04.004Z,35.97
2019-01-18T20:25:04.695Z,32.50
2019-01-18T20:27:59.478Z,31.93
2019-01-18T20:30:51.195Z,35.53
2019-01-18T20:33:59.625Z,28.23
2019-01-18T20:36:48.391Z,75.57
2019-01-18T20:39:43.089Z,32.70
2019-01-18T20:42:34.942Z,31.63
2019-01-18T20:45:23.825Z,32.77
2019-01-18T20:48:27.889Z,32.73
2019-01-18T20:51:35.141Z,32.70
2019-01-18T20:54:50.046Z,29.60
2019-01-18T20:57:45.034Z,38.83
2019-01-18T21:00:40.099Z,37.13
2019-01-18T21:03:38.237Z,37.13
2019-01-18T21:06:39.246Z,40.60
2019-01-18T21:09:31.251Z,45.00
2019-01-18T21:12:41.121Z,46.00
2019-01-18T21:15:33.142Z,41.70
2019-01-18T21:18:28.112Z,41.93
2019-01-18T21:21:22.931Z,48.80
2019-01-18T21:24:20.887Z,60.03
2019-01-18T21:27:39.158Z,48.57
2019-01-18T21:30:40.557Z,49.47
2019-01-18T21:33:41.574Z,44.20
2019-01-18T21:36:30.503Z,40.07
2019-01-18T21:39:48.566Z,40.43
2019-01-18T21:43:01.607Z,40.27
2019-01-18T21:46:19.714Z,40.20
2019-01-18T21:49:17.901Z,45.53
2019-01-18T21:52:36.770Z,32.90
2019-01-18T21:55:42.237Z,43.80
2019-01-18T21:58:33.634Z,33.77
2019-01-18T22:01:33.900Z,39.23
2019-01-18T22:04:28.592Z,40.03
2019-01-18T22:07:23.256Z,36.37
2019-01-18T22:10:20.689Z,37.33
2019-01-18T22:13:24.270Z,45.37
2019-01-18T22:16:16.087Z,43.33
2019-01-18T22:19:04.827Z,40.80
2019-01-18T22:21:56.653Z,41.97
2019-01-18T22:24:48.323Z,45.37
2019-01-18T22:27:43.153Z,38.33
2019-01-18T22:30:55.799Z,37.17
2019-01-18T22:33:56.143Z,41.80
2019-01-18T22:37:07.563Z,39.53
2019-01-18T22:40:04.942Z,51.90
2019-01-18T22:43:05.829Z,47.13
2019-01-18T22:45:55.550Z,45.17
2019-01-18T22:49:05.778Z,44.13
2019-01-18T22:52:11.124Z,51.13
2019-01-18T22:55:08.754Z,49.90
2019-01-18T22:58:50.904Z,56.43
2019-01-18T23:01:57.594Z,51.27
2019-01-18T23:04:55.637Z,44.83
2019-01-18T23:10:45.202Z,43.80
2019-01-18T23:13:36.765Z,50.23
2019-01-18T23:16:25.747Z,47.37
2019-01-18T23:19:23.667Z,46.03
2019-01-18T23:22:38.561Z,45.70
2019-01-18T23:25:36.081Z,43.47
2019-01-18T23:28:36.941Z,39.50
2019-01-18T23:31:28.449Z,40.40
2019-01-18T23:34:17.266Z,38.27
2019-01-18T23:37:09.164Z,56.97
2019-01-18T23:40:22.815Z,40.87
2019-01-18T23:43:14.347Z,41.97
2019-01-18T23:46:06.100Z,30.00
2019-01-18T23:49:13.954Z,30.43
2019-01-18T23:52:22.334Z,32.33
2019-01-18T23:55:42.202Z,34.37
2019-01-18T23:58:31.256Z,31.47
